Time;durP1;ratioP1;P1;durP2;ratioP2;P2;SDS_P1;SDS_P2;PMS_P1;PMS_P2;Temp;Humidity;BMP_temperature;BMP_pressure;BME280_temperature;BME280_humidity;BME280_pressure;Samples;Min_cycle;Max_cycle;Signal;HPM_P1;HPM_P2
2021/06/27 00:02:37;;;;;;;;;;;;;;;25.16;47.50;100665.81;5102106;28;19924;-69
2021/06/27 00:05:22;;;;;;;;;;;;;;;25.08;47.53;100665.09;5107533;28;20302;-70
2021/06/27 00:08:11;;;;;;;;;;;;;;;25.05;47.52;100665.13;5107700;28;19920;-70
2021/06/27 00:10:58;;;;;;;;;;;;;;;24.99;47.89;100670.34;5109728;28;19915;-70
2021/06/27 00:13:44;;;;;;;;;;;;;;;24.88;48.24;100672.50;5112366;28;19924;-70
2021/06/27 00:16:30;;;;;;;;;;;;;;;24.88;47.95;100668.91;5117258;28;19923;-69
2021/06/27 00:19:15;;;;;;;;;;;;;;;24.85;48.05;100658.56;5110352;27;19923;-70
2021/06/27 00:22:00;;;;;;;;;;;;;;;24.80;47.84;100672.94;5106916;28;19919;-70
2021/06/27 00:24:45;;;;;;;;;;;;;;;24.73;47.99;100667.44;5113368;28;20400;-70
2021/06/27 00:27:30;;;;;;;;;;;;;;;24.61;48.25;100672.31;5110378;28;20295;-71
2021/06/27 00:30:16;;;;;;;;;;;;;;;24.55;48.36;100673.97;5110029;27;19916;-70
2021/06/27 00:33:01;;;;;;;;;;;;;;;24.54;48.27;100666.81;5109972;28;19916;-70
2021/06/27 00:35:46;;;;;;;;;;;;;;;24.51;48.36;100670.44;5114836;27;19916;-70
2021/06/27 00:38:31;;;;;;;;;;;;;;;24.63;47.76;100675.50;5109791;28;19916;-69
2021/06/27 00:41:16;;;;;;;;;;;;;;;24.55;48.15;100673.97;5116497;28;19915;-70
2021/06/27 00:44:00;;;;;;;;;;;;;;;24.54;48.02;100669.59;5113646;28;19916;-69
2021/06/27 00:46:49;;;;;;;;;;;;;;;24.40;48.12;100680.84;5116384;28;19934;-71
2021/06/27 00:49:33;;;;;;;;;;;;;;;24.31;48.74;100686.09;5114413;28;19916;-70
2021/06/27 00:52:18;;;;;;;;;;;;;;;24.26;48.48;100684.53;5115585;27;19916;-69
2021/06/27 00:55:03;;;;;;;;;;;;;;;24.45;47.92;100685.97;5108721;28;19931;-70
2021/06/27 00:57:48;;;;;;;;;;;;;;;24.50;47.49;100699.44;5111074;28;19920;-70
2021/06/27 01:00:38;;;;;;;;;;;;;;;24.46;47.84;100692.31;5115004;28;19916;-71
2021/06/27 01:03:23;;;;;;;;;;;;;;;24.35;47.92;100695.19;5090727;28;19916;-70
2021/06/27 01:06:07;;;;;;;;;;;;;;;24.32;47.88;100704.34;5121913;28;19916;-70
2021/06/27 01:08:53;;;;;;;;;;;;;;;24.20;48.68;100696.50;5111947;28;19916;-70
2021/06/27 01:11:39;;;;;;;;;;;;;;;24.31;47.89;100700.00;5118058;28;19946;-71
2021/06/27 01:14:25;;;;;;;;;;;;;;;24.23;48.01;100704.78;5103829;28;19916;-69
2021/06/27 01:17:10;;;;;;;;;;;;;;;24.26;48.09;100714.31;5119334;28;21733;-70
2021/06/27 01:19:55;;;;;;;;;;;;;;;24.24;47.96;100703.59;5114128;28;19938;-70
2021/06/27 01:22:40;;;;;;;;;;;;;;;24.20;48.10;100707.63;5119036;28;19915;-70
2021/06/27 01:25:26;;;;;;;;;;;;;;;24.16;48.19;100701.25;5118177;28;20444;-71
2021/06/27 01:28:11;;;;;;;;;;;;;;;24.13;48.02;100700.06;5111283;28;19916;-70
2021/06/27 01:30:56;;;;;;;;;;;;;;;24.09;48.33;100701.31;5098711;28;19916;-70
2021/06/27 01:33:41;;;;;;;;;;;;;;;24.08;48.57;100700.50;5120112;28;19916;-71
2021/06/27 01:36:25;;;;;;;;;;;;;;;24.04;48.31;100705.31;5115632;28;20291;-70
2021/06/27 01:39:10;;;;;;;;;;;;;;;24.11;48.33;100698.91;5115706;28;20385;-70
2021/06/27 01:41:54;;;;;;;;;;;;;;;24.07;48.35;100696.19;5117762;27;19916;-70
2021/06/27 01:44:39;;;;;;;;;;;;;;;23.99;48.45;100696.59;5116922;28;20422;-70
2021/06/27 01:47:27;;;;;;;;;;;;;;;24.04;48.05;100696.19;5114967;28;19916;-69
2021/06/27 01:50:12;;;;;;;;;;;;;;;24.08;47.76;100700.50;5120982;28;20299;-71
2021/06/27 01:52:57;;;;;;;;;;;;;;;24.00;47.94;100698.19;5115808;28;19916;-69
2021/06/27 01:55:43;;;;;;;;;;;;;;;24.06;47.64;100693.78;5112620;28;20298;-69
2021/06/27 01:58:27;;;;;;;;;;;;;;;24.10;47.43;100697.34;5110250;28;19924;-71
2021/06/27 02:01:14;;;;;;;;;;;;;;;24.00;47.86;100687.88;5116567;28;19916;-69
2021/06/27 02:03:58;;;;;;;;;;;;;;;24.05;47.56;100692.22;5113821;28;19920;-69
2021/06/27 02:06:43;;;;;;;;;;;;;;;24.06;47.36;100693.78;5118415;28;19916;-69
2021/06/27 02:09:28;;;;;;;;;;;;;;;23.98;47.73;100683.91;5112482;27;20093;-68
2021/06/27 02:12:12;;;;;;;;;;;;;;;23.96;47.47;100686.31;5120389;28;19915;-68
2021/06/27 02:14:57;;;;;;;;;;;;;;;23.92;47.72;100686.34;5120754;28;20383;-70
2021/06/27 02:17:49;;;;;;;;;;;;;;;23.92;47.60;100680.00;5105659;28;19920;-69
2021/06/27 02:20:34;;;;;;;;;;;;;;;23.99;47.35;100685.50;5112787;28;19924;-68
2021/06/27 02:23:19;;;;;;;;;;;;;;;23.96;47.22;100681.56;5118158;27;20367;-70
2021/06/27 02:26:04;;;;;;;;;;;;;;;23.86;47.51;100680.44;5117171;28;19916;-69
2021/06/27 02:28:48;;;;;;;;;;;;;;;23.83;46.87;100667.34;5097206;28;19916;-71
2021/06/27 02:31:33;;;;;;;;;;;;;;;23.87;46.83;100659.00;5095821;28;19920;-70
2021/06/27 02:34:18;;;;;;;;;;;;;;;23.83;46.65;100649.88;5100197;28;20299;-68
2021/06/27 02:37:03;;;;;;;;;;;;;;;23.86;46.65;100638.78;5115868;28;19919;-71
2021/06/27 02:39:48;;;;;;;;;;;;;;;23.72;47.00;100629.75;5104573;28;19916;-71
2021/06/27 02:42:32;;;;;;;;;;;;;;;23.72;47.11;100630.50;5118011;28;19916;-71
2021/06/27 02:45:17;;;;;;;;;;;;;;;23.61;47.88;100627.03;5112156;28;19916;-70
2021/06/27 02:48:02;;;;;;;;;;;;;;;23.58;47.51;100635.34;5111533;28;19916;-71
2021/06/27 02:50:48;;;;;;;;;;;;;;;23.55;47.53;100639.75;5101028;28;20292;-71
2021/06/27 02:53:32;;;;;;;;;;;;;;;23.52;47.68;100632.22;5100859;28;19916;-71
2021/06/27 02:56:16;;;;;;;;;;;;;;;23.51;47.68;100622.31;5094434;28;19916;-71
2021/06/27 02:59:01;;;;;;;;;;;;;;;23.56;47.50;100621.91;5110960;28;19916;-72
2021/06/27 03:01:45;;;;;;;;;;;;;;;23.58;47.11;100633.38;5102073;28;19916;-72
2021/06/27 03:04:30;;;;;;;;;;;;;;;23.49;47.87;100635.03;5111583;28;19916;-72
2021/06/27 03:07:14;;;;;;;;;;;;;;;23.40;48.14;100638.22;5117288;28;20525;-72
2021/06/27 03:09:58;;;;;;;;;;;;;;;23.23;48.76;100639.06;5110356;28;19919;-72
2021/06/27 03:12:44;;;;;;;;;;;;;;;23.21;49.07;100645.03;5114190;28;20294;-71
2021/06/27 03:15:29;;;;;;;;;;;;;;;23.32;49.21;100648.53;5116912;28;19919;-71
2021/06/27 03:18:13;;;;;;;;;;;;;;;22.83;50.31;100640.41;5108779;28;19920;-72
2021/06/27 03:20:58;;;;;;;;;;;;;;;22.46;49.46;100640.81;5101589;28;19916;-72
2021/06/27 03:23:42;;;;;;;;;;;;;;;22.54;49.26;100642.41;5110471;28;19915;-71
2021/06/27 03:26:27;;;;;;;;;;;;;;;22.63;48.85;100640.03;5112598;28;20380;-70
2021/06/27 03:29:11;;;;;;;;;;;;;;;22.62;48.92;100646.75;5113057;28;20334;-70
2021/06/27 03:31:56;;;;;;;;;;;;;;;22.57;50.16;100650.72;5103616;27;19932;-69
2021/06/27 03:34:40;;;;;;;;;;;;;;;22.61;49.52;100647.94;5119330;28;19916;-69
2021/06/27 03:37:25;;;;;;;;;;;;;;;22.75;49.27;100647.97;5101228;28;19920;-70
2021/06/27 03:40:10;;;;;;;;;;;;;;;23.00;50.58;100647.91;5097289;28;19923;-70
2021/06/27 03:42:55;;;;;;;;;;;;;;;23.13;50.02;100656.56;5118407;28;19915;-70
2021/06/27 03:45:40;;;;;;;;;;;;;;;23.15;48.85;100649.44;5106534;28;19916;-70
2021/06/27 03:48:24;;;;;;;;;;;;;;;23.36;49.75;100654.91;5111651;28;19930;-70
2021/06/27 03:51:09;;;;;;;;;;;;;;;23.27;48.88;100650.94;5115815;28;19920;-72
2021/06/27 03:53:53;;;;;;;;;;;;;;;23.32;49.69;100654.09;5115913;27;19916;-70
2021/06/27 03:56:38;;;;;;;;;;;;;;;23.37;49.50;100655.66;5103514;28;19916;-72
2021/06/27 03:59:23;;;;;;;;;;;;;;;23.41;49.29;100657.25;5107212;28;20363;-70
2021/06/27 04:02:08;;;;;;;;;;;;;;;23.38;48.74;100658.03;5117021;28;20387;-71
2021/06/27 04:04:52;;;;;;;;;;;;;;;23.39;49.45;100654.06;5113139;28;19916;-70
2021/06/27 04:07:37;;;;;;;;;;;;;;;23.52;48.58;100657.19;5111335;28;19919;-70
2021/06/27 04:10:22;;;;;;;;;;;;;;;23.69;48.59;100645.22;5116174;27;19916;-70
2021/06/27 04:13:06;;;;;;;;;;;;;;;23.76;47.77;100664.63;5114614;28;19916;-69
2021/06/27 04:15:52;;;;;;;;;;;;;;;23.87;48.21;100665.31;5110873;28;19916;-72
2021/06/27 04:18:37;;;;;;;;;;;;;;;23.92;46.81;100666.13;5104535;28;19920;-70
2021/06/27 04:21:22;;;;;;;;;;;;;;;24.00;47.17;100664.84;5098563;28;20295;-68
2021/06/27 04:24:07;;;;;;;;;;;;;;;23.83;47.65;100659.00;5112948;28;19915;-68
2021/06/27 04:26:51;;;;;;;;;;;;;;;23.96;47.91;100666.88;5109254;28;19915;-65
2021/06/27 04:29:36;;;;;;;;;;;;;;;24.19;47.40;100672.69;5112497;28;19916;-67
2021/06/27 04:32:21;;;;;;;;;;;;;;;24.35;46.94;100675.72;5094416;28;20294;-68
2021/06/27 04:35:07;;;;;;;;;;;;;;;24.53;46.38;100679.13;5120323;27;19923;-65
2021/06/27 04:37:52;;;;;;;;;;;;;;;24.56;46.57;100681.09;5116522;27;19920;-68
2021/06/27 04:40:37;;;;;;;;;;;;;;;24.61;46.30;100677.88;5113325;28;19916;-68
2021/06/27 04:43:21;;;;;;;;;;;;;;;24.71;46.25;100670.63;5113079;28;20275;-67
2021/06/27 04:46:06;;;;;;;;;;;;;;;24.74;45.85;100672.59;5113077;27;19924;-68
2021/06/27 04:48:51;;;;;;;;;;;;;;;24.88;45.85;100666.13;5113569;27;19915;-65
2021/06/27 04:51:36;;;;;;;;;;;;;;;24.91;45.50;100674.44;5110021;28;19919;-68
2021/06/27 04:54:21;;;;;;;;;;;;;;;24.98;45.73;100668.00;5115454;27;19916;-68
2021/06/27 04:57:05;;;;;;;;;;;;;;;25.09;45.58;100672.22;5110886;28;19920;-69
2021/06/27 04:59:50;;;;;;;;;;;;;;;25.27;45.42;100674.81;5116273;28;19915;-69
2021/06/27 05:02:34;;;;;;;;;;;;;;;25.52;44.86;100674.50;5119135;28;19916;-69
2021/06/27 05:05:19;;;;;;;;;;;;;;;25.65;43.97;100688.69;5110361;28;19923;-69
2021/06/27 05:08:04;;;;;;;;;;;;;;;25.70;44.11;100686.22;5094146;28;19916;-69
2021/06/27 05:10:49;;;;;;;;;;;;;;;25.76;44.03;100689.31;5113799;27;19923;-69
2021/06/27 05:13:34;;;;;;;;;;;;;;;25.54;44.48;100684.03;5108902;27;19916;-69
2021/06/27 05:16:18;;;;;;;;;;;;;;;25.40;44.90;100684.19;5113375;27;19916;-66
2021/06/27 05:19:03;;;;;;;;;;;;;;;25.27;45.12;100687.94;5115337;28;19920;-66
2021/06/27 05:21:48;;;;;;;;;;;;;;;25.19;45.14;100692.81;5112629;28;19916;-66
2021/06/27 05:24:33;;;;;;;;;;;;;;;25.11;45.30;100692.09;5112357;28;19916;-65
2021/06/27 05:27:18;;;;;;;;;;;;;;;25.06;45.24;100700.09;5110112;28;19916;-66
2021/06/27 05:30:06;;;;;;;;;;;;;;;25.04;45.37;100697.72;5117161;28;20278;-65
2021/06/27 05:32:50;;;;;;;;;;;;;;;25.02;45.30;100691.81;5115734;28;19920;-65
2021/06/27 05:35:35;;;;;;;;;;;;;;;25.00;45.48;100685.06;5116737;28;19916;-67
2021/06/27 05:38:19;;;;;;;;;;;;;;;25.01;45.16;100687.44;5114398;28;19923;-65
2021/06/27 05:41:03;;;;;;;;;;;;;;;25.07;45.13;100682.22;5112408;27;19916;-67
2021/06/27 05:43:48;;;;;;;;;;;;;;;25.12;44.98;100685.34;5102744;28;19920;-69
2021/06/27 05:46:33;;;;;;;;;;;;;;;25.19;44.70;100684.47;5115043;28;19923;-70
2021/06/27 05:49:17;;;;;;;;;;;;;;;25.23;44.83;100682.44;5114759;28;19915;-69
2021/06/27 05:52:01;;;;;;;;;;;;;;;25.28;44.52;100687.53;5113168;28;19920;-69
2021/06/27 05:54:46;;;;;;;;;;;;;;;25.30;44.76;100681.53;5114585;28;19916;-70
2021/06/27 05:57:31;;;;;;;;;;;;;;;25.36;44.32;100675.09;5113573;27;19920;-70
2021/06/27 06:00:15;;;;;;;;;;;;;;;25.43;44.38;100677.00;5106992;28;19916;-69
2021/06/27 06:03:00;;;;;;;;;;;;;;;25.48;43.93;100685.69;5116812;28;19916;-70
2021/06/27 06:05:45;;;;;;;;;;;;;;;25.49;44.02;100687.28;5113172;28;19915;-68
2021/06/27 06:08:29;;;;;;;;;;;;;;;25.53;44.11;100688.00;5109358;28;19920;-70
2021/06/27 06:11:15;;;;;;;;;;;;;;;25.59;43.96;100690.38;5117197;28;19923;-70
2021/06/27 06:14:00;;;;;;;;;;;;;;;25.61;44.11;100693.50;5108239;28;20291;-70
2021/06/27 06:16:47;;;;;;;;;;;;;;;25.65;43.87;100697.06;5109118;28;20375;-71
2021/06/27 06:19:32;;;;;;;;;;;;;;;25.67;43.77;100700.19;5115725;27;19920;-71
2021/06/27 06:22:17;;;;;;;;;;;;;;;25.74;43.74;100705.69;5114192;28;20291;-70
2021/06/27 06:25:01;;;;;;;;;;;;;;;25.84;43.56;100699.16;5113178;28;19915;-70
2021/06/27 06:27:46;;;;;;;;;;;;;;;25.91;43.17;100693.47;5108369;27;19920;-70
2021/06/27 06:30:31;;;;;;;;;;;;;;;25.96;43.21;100695.78;5114648;28;19916;-69
2021/06/27 06:33:15;;;;;;;;;;;;;;;26.00;42.98;100693.75;5115492;28;19915;-69
2021/06/27 06:36:00;;;;;;;;;;;;;;;26.07;42.55;100699.22;5113032;28;19919;-70
2021/06/27 06:38:44;;;;;;;;;;;;;;;26.15;42.73;100699.91;5110444;28;20284;-69
2021/06/27 06:41:29;;;;;;;;;;;;;;;26.17;42.39;100714.19;5116278;27;19930;-70
2021/06/27 06:44:13;;;;;;;;;;;;;;;26.13;42.70;100719.84;5095837;28;19915;-71
2021/06/27 06:46:58;;;;;;;;;;;;;;;26.13;42.77;100722.63;5116043;28;19915;-71
2021/06/27 06:49:43;;;;;;;;;;;;;;;26.14;42.74;100721.41;5111047;28;19915;-70
2021/06/27 06:52:28;;;;;;;;;;;;;;;26.10;42.07;100731.84;5096279;28;19924;-70
2021/06/27 06:55:13;;;;;;;;;;;;;;;26.16;42.84;100738.50;5110760;28;20371;-69
2021/06/27 06:57:58;;;;;;;;;;;;;;;26.22;42.74;100734.06;5110285;28;19919;-70
2021/06/27 07:00:44;;;;;;;;;;;;;;;26.30;42.42;100731.97;5109349;28;19916;-70
2021/06/27 07:03:30;;;;;;;;;;;;;;;26.23;42.62;100730.06;5113791;28;19916;-71
2021/06/27 07:06:15;;;;;;;;;;;;;;;26.27;41.50;100724.44;5113255;28;19924;-70
2021/06/27 07:09:00;;;;;;;;;;;;;;;26.25;42.73;100732.44;5112197;28;19915;-69
2021/06/27 07:11:45;;;;;;;;;;;;;;;26.29;42.30;100730.38;5112935;28;19916;-69
2021/06/27 07:14:30;;;;;;;;;;;;;;;26.25;42.62;100732.44;5109741;28;19916;-70
2021/06/27 07:17:14;;;;;;;;;;;;;;;26.23;42.56;100738.44;5107042;28;19916;-70
2021/06/27 07:19:59;;;;;;;;;;;;;;;26.27;42.71;100733.59;5103641;27;19915;-70
2021/06/27 07:22:43;;;;;;;;;;;;;;;26.32;43.00;100737.88;5109334;28;19926;-70
2021/06/27 07:25:29;;;;;;;;;;;;;;;26.42;43.20;100730.56;5113730;27;19915;-71
2021/06/27 07:28:14;;;;;;;;;;;;;;;26.48;43.44;100723.31;5112676;28;19916;-69
2021/06/27 07:30:59;;;;;;;;;;;;;;;26.47;43.28;100727.28;5104846;28;19920;-72
2021/06/27 07:33:44;;;;;;;;;;;;;;;26.53;42.99;100728.41;5108054;28;19916;-69
2021/06/27 07:36:28;;;;;;;;;;;;;;;26.56;43.23;100722.00;5106026;27;19916;-73
2021/06/27 07:39:15;;;;;;;;;;;;;;;26.59;42.82;100724.72;5113021;28;20375;-72
2021/06/27 07:42:00;;;;;;;;;;;;;;;26.56;42.85;100731.16;5111298;27;19931;-70
2021/06/27 07:44:44;;;;;;;;;;;;;;;26.60;42.90;100728.28;5104933;28;19916;-70
2021/06/27 07:47:29;;;;;;;;;;;;;;;26.63;42.61;100733.00;5104469;28;19916;-69
2021/06/27 07:50:14;;;;;;;;;;;;;;;26.69;42.42;100736.91;5105868;27;19920;-69
2021/06/27 07:52:58;;;;;;;;;;;;;;;27.36;40.62;100732.09;5109809;28;19916;-72
2021/06/27 07:55:43;;;;;;;;;;;;;;;29.39;36.56;100740.88;5109737;28;19923;-71
2021/06/27 07:58:28;;;;;;;;;;;;;;;30.80;34.52;100741.31;5111563;27;19920;-72
2021/06/27 08:01:12;;;;;;;;;;;;;;;30.87;33.47;100740.28;5110491;27;20263;-71
2021/06/27 08:03:57;;;;;;;;;;;;;;;29.45;37.09;100744.72;5105317;28;19924;-71
2021/06/27 08:06:41;;;;;;;;;;;;;;;28.77;38.38;100740.13;5111660;27;20379;-71
2021/06/27 08:09:26;;;;;;;;;;;;;;;28.47;37.56;100744.03;5099176;28;19930;-71
2021/06/27 08:12:11;;;;;;;;;;;;;;;28.46;38.10;100742.47;5096900;28;19916;-72
2021/06/27 08:14:56;;;;;;;;;;;;;;;28.39;37.57;100736.28;5114867;28;19916;-71
2021/06/27 08:17:40;;;;;;;;;;;;;;;28.29;38.05;100737.31;5108578;27;19924;-71
2021/06/27 08:20:25;;;;;;;;;;;;;;;28.31;37.49;100729.25;5108980;28;19916;-71
2021/06/27 08:23:10;;;;;;;;;;;;;;;28.30;37.25;100727.69;5111580;28;20279;-70
2021/06/27 08:25:54;;;;;;;;;;;;;;;28.25;38.41;100726.19;5115610;28;20287;-71
2021/06/27 08:28:39;;;;;;;;;;;;;;;28.36;38.39;100731.53;5108096;28;19915;-71
2021/06/27 08:31:26;;;;;;;;;;;;;;;28.36;38.18;100732.31;5112124;28;19916;-71
2021/06/27 08:34:10;;;;;;;;;;;;;;;28.25;38.35;100734.59;5113925;28;19916;-71
2021/06/27 08:36:55;;;;;;;;;;;;;;;28.15;39.02;100727.22;5092647;28;19916;-71
2021/06/27 08:39:40;;;;;;;;;;;;;;;28.19;38.88;100727.16;5105698;27;19920;-71
2021/06/27 08:42:24;;;;;;;;;;;;;;;28.29;39.28;100734.53;5110069;27;20355;-71
2021/06/27 08:45:10;;;;;;;;;;;;;;;28.38;39.39;100732.69;5109572;27;19916;-71
2021/06/27 08:47:56;;;;;;;;;;;;;;;28.43;39.02;100731.38;5105936;28;19916;-71
2021/06/27 08:50:43;;;;;;;;;;;;;;;28.49;39.17;100730.41;5114389;27;19923;-71
2021/06/27 08:53:29;;;;;;;;;;;;;;;28.55;39.16;100727.09;5113206;28;19916;-71
2021/06/27 08:56:14;;;;;;;;;;;;;;;28.62;39.32;100726.91;5108200;28;19915;-71
2021/06/27 08:58:59;;;;;;;;;;;;;;;28.74;39.14;100729.81;5109578;28;19920;-71
2021/06/27 09:01:44;;;;;;;;;;;;;;;28.85;39.03;100729.53;5101681;28;20383;-73
2021/06/27 09:04:31;;;;;;;;;;;;;;;29.00;36.72;100727.16;5112888;28;19916;-72
2021/06/27 09:07:28;;;;;;;;;;;;;;;29.07;36.08;100729.75;5110087;27;19916;-71
2021/06/27 09:10:17;;;;;;;;;;;;;;;29.16;35.46;100732.69;5113619;28;19915;-72
2021/06/27 09:13:01;;;;;;;;;;;;;;;29.22;35.54;100730.91;5112168;28;19919;-72
2021/06/27 09:15:50;;;;;;;;;;;;;;;29.33;35.26;100731.44;5113760;28;19916;-72
2021/06/27 09:18:34;;;;;;;;;;;;;;;29.46;35.77;100723.09;5107565;28;20342;-72
2021/06/27 09:21:19;;;;;;;;;;;;;;;29.56;33.56;100731.16;5116424;28;19915;-72
2021/06/27 09:24:04;;;;;;;;;;;;;;;29.50;35.47;100716.16;5116375;28;19915;-71
2021/06/27 09:26:50;;;;;;;;;;;;;;;29.54;35.72;100721.63;5114111;28;19915;-72
2021/06/27 09:29:34;;;;;;;;;;;;;;;29.51;35.63;100722.53;5114076;27;19916;-71
2021/06/27 09:32:20;;;;;;;;;;;;;;;29.53;35.10;100709.63;5113500;27;19916;-71
2021/06/27 09:35:06;;;;;;;;;;;;;;;29.70;35.56;100707.53;5108789;28;19916;-71
2021/06/27 09:37:50;;;;;;;;;;;;;;;29.75;34.57;100702.16;5114100;28;19920;-71
2021/06/27 09:40:35;;;;;;;;;;;;;;;29.97;32.22;100715.56;5114226;28;19916;-71
2021/06/27 09:43:20;;;;;;;;;;;;;;;29.99;32.04;100710.28;5116625;28;20276;-71
2021/06/27 09:46:12;;;;;;;;;;;;;;;29.96;31.93;100709.16;5109693;27;19916;-71
2021/06/27 09:48:58;;;;;;;;;;;;;;;30.08;32.28;100716.00;5114667;28;19915;-71
2021/06/27 09:51:49;;;;;;;;;;;;;;;30.24;31.17;100715.88;5117445;28;19916;-71
2021/06/27 09:54:34;;;;;;;;;;;;;;;30.24;30.84;100715.09;5116760;28;19915;-72
2021/06/27 09:57:22;;;;;;;;;;;;;;;30.33;30.81;100710.38;5115105;28;19915;-72
2021/06/27 10:00:22;;;;;;;;;;;;;;;30.40;29.80;100712.94;5114335;28;19919;-71
2021/06/27 10:03:09;;;;;;;;;;;;;;;30.56;29.41;100714.88;5116524;28;20372;-71
2021/06/27 10:06:03;;;;;;;;;;;;;;;30.59;29.05;100711.94;5120452;28;19915;-72
2021/06/27 10:08:48;;;;;;;;;;;;;;;30.69;28.33;100714.81;5115059;28;19916;-72
2021/06/27 10:11:34;;;;;;;;;;;;;;;30.57;29.87;100706.00;5115797;28;19916;-72
2021/06/27 10:14:18;;;;;;;;;;;;;;;30.53;29.15;100710.94;5104450;28;19916;-72
2021/06/27 10:17:04;;;;;;;;;;;;;;;30.66;28.41;100715.72;5115641;28;20102;-72
2021/06/27 10:19:49;;;;;;;;;;;;;;;30.66;28.01;100712.94;5114641;28;20379;-72
2021/06/27 10:22:34;;;;;;;;;;;;;;;30.81;28.81;100705.59;5108687;28;19915;-73
2021/06/27 10:25:19;;;;;;;;;;;;;;;30.89;27.77;100710.47;5113304;28;19916;-72
2021/06/27 10:28:05;;;;;;;;;;;;;;;30.93;28.53;100702.72;5112878;28;19916;-71
2021/06/27 10:30:50;;;;;;;;;;;;;;;30.97;29.31;100708.22;5112307;28;19915;-71
2021/06/27 10:33:35;;;;;;;;;;;;;;;31.01;28.39;100700.44;5115517;28;20364;-71
2021/06/27 10:36:46;;;;;;;;;;;;;;;31.14;29.20;100703.25;5112749;28;19920;-73
2021/06/27 10:39:30;;;;;;;;;;;;;;;31.25;27.98;100704.41;5116869;28;19920;-72
2021/06/27 10:42:15;;;;;;;;;;;;;;;31.16;28.13;100707.16;5114381;27;19923;-72
2021/06/27 10:45:00;;;;;;;;;;;;;;;31.24;29.16;100702.81;5110899;27;19916;-72
2021/06/27 10:47:45;;;;;;;;;;;;;;;31.08;29.37;100697.44;5113738;28;20371;-72
2021/06/27 10:50:50;;;;;;;;;;;;;;;30.99;28.79;100697.31;5117741;27;19915;-72
2021/06/27 10:53:57;;;;;;;;;;;;;;;31.04;28.53;100702.38;5114163;28;19916;-73
2021/06/27 10:56:59;;;;;;;;;;;;;;;31.20;29.03;100696.56;5112888;28;19927;-72
2021/06/27 10:59:46;;;;;;;;;;;;;;;31.36;29.19;100692.75;5097190;28;19920;-72
2021/06/27 11:02:39;;;;;;;;;;;;;;;31.25;28.54;100693.16;5119598;28;19916;-72
2021/06/27 11:05:33;;;;;;;;;;;;;;;31.43;28.52;100698.91;5112490;28;19916;-71
2021/06/27 11:08:28;;;;;;;;;;;;;;;31.58;28.26;100696.38;5110839;28;19916;-71
2021/06/27 11:11:23;;;;;;;;;;;;;;;31.70;28.25;100694.69;5116055;28;19916;-72
2021/06/27 11:14:10;;;;;;;;;;;;;;;31.62;28.35;100693.41;5112619;28;19916;-71
2021/06/27 11:16:59;;;;;;;;;;;;;;;31.69;28.77;100693.16;5112037;28;19915;-71
2021/06/27 11:19:44;;;;;;;;;;;;;;;31.69;28.99;100684.72;5114058;28;19920;-71
2021/06/27 11:22:30;;;;;;;;;;;;;;;31.65;30.80;100686.88;5106769;28;19916;-72
2021/06/27 11:25:34;;;;;;;;;;;;;;;31.64;29.78;100688.13;5110484;28;19919;-72
2021/06/27 11:28:20;;;;;;;;;;;;;;;31.65;29.06;100686.88;5108731;28;20364;-73
2021/06/27 11:31:25;;;;;;;;;;;;;;;31.67;29.04;100690.00;5110368;28;20403;-72
2021/06/27 11:34:19;;;;;;;;;;;;;;;31.69;29.14;100687.53;5107413;28;19916;-73
2021/06/27 11:37:20;;;;;;;;;;;;;;;31.77;29.16;100694.44;5111549;28;20387;-72
2021/06/27 11:40:05;;;;;;;;;;;;;;;31.98;29.06;100681.56;5114545;28;19919;-71
2021/06/27 11:42:50;;;;;;;;;;;;;;;31.97;30.02;100682.78;5102981;28;20387;-73
2021/06/27 11:45:35;;;;;;;;;;;;;;;32.08;29.13;100681.13;5109449;28;19916;-72
2021/06/27 11:48:21;;;;;;;;;;;;;;;32.18;29.14;100679.94;5104308;28;19915;-72
2021/06/27 11:51:06;;;;;;;;;;;;;;;32.27;28.79;100684.78;5111214;28;19915;-73
2021/06/27 11:53:52;;;;;;;;;;;;;;;32.00;29.01;100679.06;5097276;28;20368;-73
2021/06/27 11:56:53;;;;;;;;;;;;;;;31.95;28.70;100671.25;5112223;27;20405;-72
2021/06/27 11:59:38;;;;;;;;;;;;;;;32.14;30.41;100681.34;5106960;27;19924;-71
2021/06/27 12:02:29;;;;;;;;;;;;;;;32.24;29.14;100666.81;5101309;28;19916;-73
2021/06/27 12:05:15;;;;;;;;;;;;;;;31.95;29.71;100666.38;5102913;28;19916;-73
2021/06/27 12:08:07;;;;;;;;;;;;;;;32.05;28.18;100664.41;5103639;28;19916;-73
2021/06/27 12:10:53;;;;;;;;;;;;;;;32.16;27.68;100656.31;5099276;28;19920;-72
2021/06/27 12:13:39;;;;;;;;;;;;;;;32.24;28.81;100654.78;5116509;28;19920;-73
2021/06/27 12:16:31;;;;;;;;;;;;;;;32.23;28.69;100656.81;5114061;28;19945;-73
2021/06/27 12:19:16;;;;;;;;;;;;;;;32.29;28.06;100654.16;5110373;28;19920;-73
2021/06/27 12:22:00;;;;;;;;;;;;;;;32.37;28.16;100663.06;5108220;28;20395;-72
2021/06/27 12:24:46;;;;;;;;;;;;;;;32.39;29.34;100650.13;5105803;28;19916;-73
2021/06/27 12:27:30;;;;;;;;;;;;;;;32.35;28.41;100646.66;5112169;28;19916;-72
2021/06/27 12:30:16;;;;;;;;;;;;;;;32.36;27.81;100644.63;5113274;28;20283;-72
2021/06/27 12:33:03;;;;;;;;;;;;;;;32.50;27.78;100636.38;5115076;28;19920;-73
2021/06/27 12:35:49;;;;;;;;;;;;;;;32.42;28.63;100642.75;5105878;28;20315;-73
2021/06/27 12:38:34;;;;;;;;;;;;;;;32.51;27.95;100637.16;5108396;28;19919;-73
2021/06/27 12:41:20;;;;;;;;;;;;;;;32.52;27.40;100644.31;5109760;27;20380;-72
2021/06/27 12:44:06;;;;;;;;;;;;;;;32.54;27.79;100641.84;5111123;27;19915;-73
2021/06/27 12:46:53;;;;;;;;;;;;;;;32.52;27.73;100630.25;5114979;27;19919;-73
2021/06/27 12:49:47;;;;;;;;;;;;;;;32.48;28.42;100635.25;5111030;28;20299;-72
2021/06/27 12:52:32;;;;;;;;;;;;;;;32.45;28.28;100630.56;5111256;28;19916;-72
2021/06/27 12:55:16;;;;;;;;;;;;;;;32.45;27.83;100630.56;5119851;28;19916;-72
2021/06/27 12:58:01;;;;;;;;;;;;;;;32.42;29.03;100626.63;5116687;28;20101;-72
2021/06/27 13:00:46;;;;;;;;;;;;;;;32.36;29.79;100624.91;5116843;28;19915;-72
2021/06/27 13:03:31;;;;;;;;;;;;;;;32.40;29.17;100625.56;5112665;27;19923;-72
2021/06/27 13:06:16;;;;;;;;;;;;;;;32.49;28.49;100631.97;5115556;28;19915;-73
2021/06/27 13:09:27;;;;;;;;;;;;;;;32.53;28.48;100631.81;5113640;28;19916;-73
2021/06/27 13:12:19;;;;;;;;;;;;;;;32.42;28.55;100626.63;5118992;28;19923;-72
2021/06/27 13:15:24;;;;;;;;;;;;;;;32.45;28.82;100628.53;5115218;28;19916;-73
2021/06/27 13:18:09;;;;;;;;;;;;;;;32.57;29.95;100621.19;5116364;28;19916;-73
2021/06/27 13:20:54;;;;;;;;;;;;;;;32.46;28.44;100621.63;5118168;28;19934;-72
2021/06/27 13:23:38;;;;;;;;;;;;;;;32.46;29.37;100623.69;5113844;28;19916;-71
2021/06/27 13:26:24;;;;;;;;;;;;;;;32.47;28.78;100619.59;5118782;28;19915;-72
2021/06/27 13:29:18;;;;;;;;;;;;;;;32.54;28.79;100622.91;5117537;28;19916;-72
2021/06/27 13:32:22;;;;;;;;;;;;;;;32.34;28.42;100627.44;5116022;28;19916;-72
2021/06/27 13:35:25;;;;;;;;;;;;;;;32.30;28.69;100629.63;5117569;28;19915;-73
2021/06/27 13:38:13;;;;;;;;;;;;;;;32.37;28.84;100629.28;5110777;27;19916;-73
2021/06/27 13:40:57;;;;;;;;;;;;;;;32.28;29.19;100623.66;5120029;28;19916;-73
2021/06/27 13:43:43;;;;;;;;;;;;;;;32.08;28.38;100619.22;5116106;28;20333;-73
2021/06/27 13:46:27;;;;;;;;;;;;;;;32.21;28.12;100616.28;5115813;28;19916;-72
2021/06/27 13:49:12;;;;;;;;;;;;;;;32.27;27.64;100620.06;5119981;27;20295;-71
2021/06/27 13:51:57;;;;;;;;;;;;;;;32.13;28.68;100621.44;5115553;28;19916;-71
2021/06/27 13:54:41;;;;;;;;;;;;;;;32.27;28.19;100620.06;5112872;28;19920;-72
2021/06/27 13:57:26;;;;;;;;;;;;;;;32.26;27.66;100616.44;5114148;27;20299;-72
2021/06/27 14:00:12;;;;;;;;;;;;;;;32.29;27.84;100613.97;5116228;28;19919;-71
2021/06/27 14:03:00;;;;;;;;;;;;;;;32.36;27.23;100617.25;5116564;28;19915;-73
2021/06/27 14:05:44;;;;;;;;;;;;;;;32.14;28.81;100610.97;5112846;28;19920;-71
2021/06/27 14:08:29;;;;;;;;;;;;;;;32.03;27.85;100614.19;5116117;28;19915;-73
2021/06/27 14:11:14;;;;;;;;;;;;;;;32.07;28.45;100616.88;5115760;28;19916;-73
2021/06/27 14:14:00;;;;;;;;;;;;;;;31.92;30.75;100610.25;5117614;28;20275;-73